Racecast

EJ Herrmann Invitational

Proctor Park · 5000m · Girls · Compiled · NY

133 runners from 2 divisions

These divisions were run separately. This is how their times compare, not how they finished — the places and scores below were never contested.

View full meet →

Team scores

Place Team Points 12345 67
1 Mohonasen (NY) 79 2 15 16 22 24 33 45
2 Rome Free Academy (NY) 83 1 5 14 25 38 40 42
3 Delaware Academy (NY) 92 6 8 18 29 31 41 66
4 South Lewis (NY) 94 3 4 9 34 44
5 Beaver River (NY) 132 13 17 20 36 46 49 52
6 Adirondack (NY) 167 7 21 26 32 81
7 Thomas R Proctor (NY) 212 12 28 43 56 73 76 85
8 Central Valley Academy (NY) 237 39 47 48 50 53 67 69
9 Dolgeville (NY) 238 10 27 57 62 82 88 90
10 Herkimer (NY) 246 23 30 54 60 79 84
11 Fonda-Fultonville (NY) 249 11 35 58 71 74 75 86
12 Remsen (NY) 264 19 51 59 63 72 80
13 Notre Dame Jr/Sr (Utica) (NY) 323 37 61 70 77 78 89
14 Indian River (NY) 335 55 64 65 68 83 87

Not scored, fewer than five finishers: West Canada Valley (4), Edmeston Central (4), Mayfield Central (3), Norwich (3), Waterville (2), Oneonta (2), Jamesville De Witt (2), Little Falls (2), Mount Markham (1), Westmoreland (1), Unadilla Valley Central (1)

Rating scale ?

Results

Place Athlete Grade School Time Rating Points Actual race
1 Emily Toth-Ratazzi 12 Rome Free Academy (NY) 1 18:36.8 140.4 1 1
2 Rachel Miller 9 Mohonasen (NY) 1 19:28.6 134.2 2 2
3 Lexi Bernard 12 South Lewis (NY) 1 19:52.6 131.6 3 3
4 Brynn Bernard 10 South Lewis (NY) 2 19:59.9 130.8 4 4
5 Marlo Townsend 11 Rome Free Academy (NY) 2 20:50.9 125.6 5 5
6 Eleanor Lees 10 Delaware Academy (NY) 1 21:32.6 121.6 6 6
7 Cora Hinsdill 8 Adirondack (NY) 1 21:35.1 132.5 7 7
8 Gretel Hillson-Schneider 10 Delaware Academy (NY) 2 21:39.9 120.9 8 8
9 Mallory Kraeger 10 South Lewis (NY) 3 21:43.2 120.6 9 9
10 Grace Seeley 8 Dolgeville (NY) 1 21:44.9 131.5 10 10
11 Isabella Miller 10 Fonda-Fultonville (NY) 1 21:53.3 119.7 11 11
12 Megan Lew 10 Thomas R Proctor (NY) 1 22:03.1 118.8 12 12
13 Grace Davis 9 Beaver River (NY) 1 22:10.5 118.2 13 13
14 Kayleana Vandeusen 10 Rome Free Academy (NY) 3 22:13.8 117.9 14 14
15 Abby Marriner 9 Mohonasen (NY) 2 22:17.0 117.6 15 15
16 Zoe Miller 10 Mohonasen (NY) 3 22:18.0 117.5 16 16
17 Anna Roggie 10 Beaver River (NY) 2 22:19.9 117.3 17 17
18 Abi Tessier 9 Delaware Academy (NY) 3 22:25.6 116.9 18 18
19 Ellie Bartlett 9 Remsen (NY) 1 22:48.0 115.0 19 19
20 Ava Campeau 9 Beaver River (NY) 3 23:02.8 113.8 20 20
21 Elizabeth Hill 12 Adirondack (NY) 2 23:09.4 113.2 21 21
22 Alexis Brown 11 Mohonasen (NY) 4 23:23.1 112.1 22 22
23 Rylie Biamonte 9 Herkimer (NY) 1 23:26.7 23 23
24 Lexi Thayer 9 Mohonasen (NY) 5 23:28.2 111.7 24 24
25 Alexus Lennon 12 Rome Free Academy (NY) 4 23:36.3 111.1 25 25
26 Kaylee Mathis 10 Adirondack (NY) 3 23:41.0 110.7 26 26
27 Celine Juchheim 9 Dolgeville (NY) 2 23:49.2 110.1 27 27
28 Jasmin Gonzalez-rivera 10 Thomas R Proctor (NY) 2 24:01.8 109.2 28 28
29 Meghan Hadley 10 Delaware Academy (NY) 4 24:02.0 109.1 29 29
30 Ella Stuttard 10 Waterville (ME) 1 24:03.7 109.0 30
31 Abigail Polus 11 Herkimer (NY) 2 24:04.5 109.0 30 31
32 Lucia Marsiglio 12 Delaware Academy (NY) 5 24:17.2 108.0 31 32
33 Alexandria Stewart 11 West Canada Valley (NY) 1 24:22.4 107.7 33
34 Aya Knitel 11 Adirondack (NY) 4 24:23.3 107.6 32 34
35 Ella Marriner 7 Mohonasen (NY) 6 24:29.5 117.0 33 1
36 Shelby Becraft 8 South Lewis (NY) 4 24:37.8 116.4 34 35
37 Emma Charboneau 11 Fonda-Fultonville (NY) 2 24:42.2 106.2 35 36
38 Adah Simpson 10 Beaver River (NY) 4 24:44.1 106.1 36 37
39 Hayley Heffernan 12 Notre Dame Jr/Sr (Utica) (NY) 1 24:50.8 105.6 37 38
40 Shannen Calandra 11 Rome Free Academy (NY) 5 24:52.2 105.5 38 39
41 Grace Lally 9 Central Valley Academy (NY) 1 24:56.5 105.2 39 40
42 Lilliana Powers 11 Mayfield Central (NY) 1 24:56.7 105.2 41
43 Julissa Luciano 11 Rome Free Academy (NY) 6 25:07.1 104.5 40 42
44 Madilyn Connor 12 West Canada Valley (NY) 2 25:10.0 104.3 43
45 Sienna Dorr 12 Delaware Academy (NY) 6 25:13.3 104.1 41 44
46 Caitlin Platis 9 Rome Free Academy (NY) 7 25:13.7 104.1 42 2
47 Kayleigh Simpson 12 Thomas R Proctor (NY) 3 25:15.9 103.9 43 45
48 Madison Rhubart 10 South Lewis (NY) 5 25:16.1 103.9 44 46
49 Marissa Smith 7 Mohonasen (NY) 7 25:17.3 113.4 45 3
50 Hanna Lighthall 11 Beaver River (NY) 5 25:20.9 103.6 46 47
51 Olivia Lapuma 12 Central Valley Academy (NY) 2 25:21.7 103.6 47 48
52 Kyde Power 9 Mohonasen (NY) 8 25:23.8 103.4 49
53 Gianna Rutherford 12 West Canada Valley (NY) 3 25:27.9 103.1 50
54 Kaelin Napoli 12 Central Valley Academy (NY) 3 25:29.4 103.0 48 51
55 Ariel Wener 12 Beaver River (NY) 6 25:30.8 102.9 49 52
56 Madison Quivey 11 Mohonasen (NY) 9 25:40.6 102.3 4
57 Shavaia Parry 11 Rome Free Academy (NY) 8 25:43.0 102.1 53
58 Julianne Fike 12 Central Valley Academy (NY) 4 25:43.8 102.1 50 54
59 Grace Shufelt 11 Remsen (NY) 2 25:47.6 101.8 51 55
60 Sarah Goldthrite 11 Beaver River (NY) 7 25:48.7 101.8 52 56
61 Sofie Melone 9 Rome Free Academy (NY) 9 26:01.7 100.9 5
62 Alexis White 12 Central Valley Academy (NY) 5 26:09.0 100.4 53 57
63 Gianna Badolato 10 Rome Free Academy (NY) 10 26:11.3 100.3 58
64 Katarina Agerter 10 Mayfield Central (NY) 2 26:23.5 99.5 59
65 Hannah Allison 11 Herkimer (NY) 3 26:27.7 99.2 54 60
66 Annie (Ann) Boland 9 Norwich (MA) 1 26:50.9 97.8 61
67 Fumi Yatsuhashi 10 Oneonta (NY) 1 27:04.2 97.0 62
68 Jenna Kingsbury 7 Mohonasen (NY) 10 27:11.5 105.6 6
69 Kierra Gabriel 12 Indian River (VA) 1 27:16.8 96.3 55 63
70 Olga Akhremenko 12 Thomas R Proctor (NY) 4 27:18.3 96.2 56 64
71 Ainsley Billings 11 Dolgeville (NY) 3 27:24.6 95.9 57 65
72 Carly Bond 10 Edmeston Central (NY) 1 27:39.4 95.0 66
73 Ally Ferretti 12 Rome Free Academy (NY) 11 27:44.0 94.8 7
74 Cole Morgan 9 Mohonasen (NY) 11 27:44.2 94.8 8
75 Kaitlyn Stearns 11 Fonda-Fultonville (NY) 3 28:10.3 93.3 58 67
76 Kendall Decker 12 Remsen (NY) 3 28:12.1 59 68
77 Cadence Weaver 9 Herkimer (NY) 4 28:14.7 93.1 60 69
78 Giavonna Cianfrocco 11 Rome Free Academy (NY) 12 28:40.2 91.7 9
79 Lila Putelo 10 Notre Dame Jr/Sr (Utica) (NY) 2 28:40.3 91.7 61 70
80 Arianna McClendon 11 Jamesville De Witt (NY) 1 28:49.9 91.2 71
81 Kighlah Klawonn 9 Dolgeville (NY) 4 28:57.5 90.8 62 72
82 Haylie Pederson 11 Rome Free Academy (NY) 13 28:58.6 90.7 10
83 Alivia Hopsicker 10 Remsen (NY) 4 29:03.5 90.5 63 73
84 Azarya Raper 10 Indian River (VA) 2 29:03.9 90.5 64 74
85 Hailey Ringuette 10 Indian River (VA) 3 29:07.0 90.3 65 75
86 Erin Coppersmith 10 Delaware Academy (NY) 7 29:09.1 90.2 66 76
87 Isabella White 9 Central Valley Academy (NY) 6 29:16.7 89.8 67 77
88 Natalie Van Epps 11 Indian River (VA) 4 29:17.3 89.8 68 78
89 Sara Thayer 12 Mount Markham (NY) 1 29:26.7 89.3 79
90 Selen Bilal 9 Jamesville De Witt (NY) 2 29:26.9 89.3 80
91 Marcella Pronti 10 Central Valley Academy (NY) 7 29:35.7 88.9 69 81
92 Lily Mazur 10 Westmoreland (TN) 1 29:54.0 88.0 82
93 Kyra Brunick-Davis 9 Norwich (MA) 2 29:56.0 87.9 83
94 Abigail White 8 Edmeston Central (NY) 2 30:03.3 95.6 84
95 Gabriella Lawrence 12 Central Valley Academy (NY) 8 30:08.8 87.3 11
96 Angel Porter 10 Unadilla Valley Central (NY) 1 30:30.5 86.2 85
97 Anna Palova 12 Notre Dame Jr/Sr (Utica) (NY) 3 30:37.7 85.9 70 86
98 Kassandra Holloway 9 Fonda-Fultonville (NY) 4 30:38.9 85.9 71 87
99 Lauren Abrial 10 Remsen (NY) 5 30:39.2 85.8 72 88
100 Olivia Michalski 11 Mayfield Central (NY) 3 30:41.1 85.7 89
101 Hanley Poyer 12 Waterville (ME) 2 30:53.3 85.2 90
102 Sydney Kinsella 12 West Canada Valley (NY) 4 31:03.2 84.7 91
103 Toni Brown 12 Thomas R Proctor (NY) 5 31:13.7 84.3 73 92
104 Kaylee Freeman 12 Fonda-Fultonville (NY) 5 31:24.0 83.8 74 93
105 Allison Gillis 9 Fonda-Fultonville (NY) 6 31:26.1 83.7 75 94
106 Jenna Skutnik 12 Thomas R Proctor (NY) 6 31:39.2 83.2 76 95
107 Sarah Raja 12 Notre Dame Jr/Sr (Utica) (NY) 4 31:51.8 82.6 77 96
108 Dezariyiah Bellamy 12 Notre Dame Jr/Sr (Utica) (NY) 5 32:00.1 82.3 78 97
109 Brynn Rifanburg 12 Edmeston Central (NY) 3 32:00.1 82.3 98
110 McKenna Gargas 9 Herkimer (NY) 5 32:03.8 82.1 79 99
111 Hannah Basile 12 Remsen (NY) 6 32:04.3 82.1 80 100
112 Ella Tomlins 11 Edmeston Central (NY) 4 32:04.8 82.1 101
113 Marissa Stievater 9 Adirondack (NY) 5 32:16.1 81.6 81 102
114 Emily Ackerly 9 Dolgeville (NY) 5 32:21.0 81.4 82 103
115 Chloe Salsman 10 Central Valley Academy (NY) 9 33:06.2 79.6 12
116 Kiera Wilbur 10 Central Valley Academy (NY) 10 33:11.2 79.4 104
117 Vanessa Wing 12 Indian River (VA) 5 33:34.2 78.5 83 105
118 Chloe Dilallo 8 Mohonasen (NY) 12 33:35.5 85.7 13
119 Isabella Miller 9 Herkimer (NY) 6 33:52.0 77.8 84 106
120 Lexi Slate 12 Norwich (MA) 3 34:04.8 77.3 107
121 Anya Sloth 11 Oneonta (NY) 2 34:14.9 76.9 108
122 Tamiah Washington 12 Thomas R Proctor (NY) 7 34:16.7 85 109
123 Evelyn Yun 12 Fonda-Fultonville (NY) 7 34:54.5 75.5 86 110
124 Heaven Golladay-Wat 12 Indian River (VA) 6 35:01.1 75.2 87 111
125 Alexa Yager 10 Thomas R Proctor (NY) 8 35:16.4 74.7 112
126 Evangeline Gleichsner 10 Mohonasen (NY) 13 35:24.3 74.4 14
127 Curnin Wallace-Eato 9 Little Falls (MN) 1 35:37.8 74.0 113
128 Lauren Lehman 10 Mohonasen (NY) 14 35:51.6 73.5 15
129 Annamarie Lyman 10 Central Valley Academy (NY) 11 36:07.5 73.0 16
130 Maggie Rauch 10 Dolgeville (NY) 6 36:41.8 71.8 88 114
131 Bella Roberts 10 Notre Dame Jr/Sr (Utica) (NY) 6 36:47.6 71.6 89 115
132 Hadessa Leavitt 10 Dolgeville (NY) 7 40:11.0 65.7 90 116
133 Olivia Canastar 9 Little Falls (MN) 2 40:33.9 65.0 117